Portland, Oregon
Traffic Map
Current Weather Conditions
Portland, Oregon
Few Clouds
Few Clouds

Feels Like: 3°
Wind Chill: Ceiling: Unl
Heat Index: Visibility: 10mi
Dew Point: Wind: 7mph
Humidity: 89% Direction: 130° (SE)
Pressure: 30.17in Gusts: 0mph
Raw Report DataKPDX 261253Z 13006KT 10SM FEW050 FEW250 06/04 A3017 RMK AO2 SLP215 T00560039
Traffic Incident Summary
Active as of:
Severity:
Category:
InformationThere was an issue retrieving the traffic information for this location. Please try a different location or try again shortly.
Advertisements
Track Severe Weather on mobile